Lac Du Flambeau, Wisconsin
Current Conditions -  °F | °C
As of 4:35 PM on Sunday 23 Nov 2014 (Local Time) from KARV Reporting Station
Moderate Fog Moderate Fog  
Wind Chill: 43°   Ceiling: 200
Heat Index: 43°   Visibility: 0.25mi
Dew Point: 42°   Wind: 0mph
Humidity: 97%   Direction: NA
Pressure: 29.38"   Gusts: NA
Location:  45.97°N, 89.89°W
Report Text: KARV 232235Z AUTO 00000KT 1/4SM FG OVC002 06/06 A2938 RMK AO2 T00600055
Loading
Personal Weather Stations






























Interactive Weather Map New forecast layout! Learn more

10-Day Weather Forecast

Advertisements
Track Severe Weather on mobile